Time;durP1;ratioP1;P1;durP2;ratioP2;P2;SDS_P1;SDS_P2;PMS_P1;PMS_P2;Temp;Humidity;BMP_temperature;BMP_pressure;BME280_temperature;BME280_humidity;BME280_pressure;Samples;Min_cycle;Max_cycle;Signal;HPM_P1;HPM_P2
2022/05/06 00:00:20;;;;;;;7.30;6.60;;;;;;;11.07;100.00;96962.56;5054817;28;20456;-75
2022/05/06 00:02:47;;;;;;;9.10;6.47;;;;;;;10.80;100.00;96971.59;5055161;28;20787;-75
2022/05/06 00:05:14;;;;;;;9.73;7.17;;;;;;;10.44;100.00;96967.38;5036908;28;20483;-75
2022/05/06 00:07:40;;;;;;;10.60;6.63;;;;;;;10.36;100.00;96966.28;5037028;28;20432;-75
2022/05/06 00:10:09;;;;;;;7.93;6.60;;;;;;;10.10;100.00;96915.19;5020422;28;20477;-75
2022/05/06 00:12:39;;;;;;;11.10;7.20;;;;;;;10.72;100.00;96973.16;5036663;28;20914;-75
2022/05/06 00:15:07;;;;;;;7.53;6.73;;;;;;;10.50;100.00;96974.06;5037027;28;20535;-75
2022/05/06 00:17:34;;;;;;;10.07;6.07;;;;;;;10.74;100.00;96968.34;5036392;28;20465;-75
2022/05/06 00:20:00;;;;;;;6.87;6.37;;;;;;;10.56;100.00;96937.69;5036364;28;20522;-75
2022/05/06 00:22:27;;;;;;;7.73;6.43;;;;;;;10.77;100.00;96965.06;5054312;28;20425;-75
2022/05/06 00:24:53;;;;;;;10.13;7.17;;;;;;;10.80;100.00;96967.09;5036508;28;20824;-76
2022/05/06 00:27:20;;;;;;;6.50;5.90;;;;;;;10.92;100.00;96963.81;5036292;28;20433;-76
2022/05/06 00:29:47;;;;;;;7.03;6.53;;;;;;;10.85;100.00;96950.28;5054112;28;20432;-76
2022/05/06 00:32:15;;;;;;;8.03;5.00;;;;;;;10.44;100.00;96893.34;5054361;28;20896;-75
2022/05/06 00:34:41;;;;;;;8.53;6.27;;;;;;;10.63;100.00;96953.84;5054223;28;20432;-75
2022/05/06 00:37:08;;;;;;;6.80;6.30;;;;;;;10.71;100.00;96958.38;5054337;28;20556;-75
2022/05/06 00:39:35;;;;;;;8.90;5.77;;;;;;;10.72;100.00;96952.00;5054088;28;20433;-75
2022/05/06 00:42:02;;;;;;;7.53;6.80;;;;;;;10.59;100.00;96940.50;5052500;28;20453;-75
2022/05/06 00:44:29;;;;;;;8.70;6.93;;;;;;;10.39;100.00;96938.44;5054009;28;20809;-75
2022/05/06 00:46:58;;;;;;;8.20;7.43;;;;;;;10.81;100.00;96963.34;5036030;28;20792;-75
2022/05/06 00:49:25;;;;;;;7.90;6.73;;;;;;;10.29;100.00;96914.97;5053456;28;20455;-75
2022/05/06 00:51:53;;;;;;;7.20;6.40;;;;;;;10.75;100.00;96958.53;5053095;28;20464;-75
2022/05/06 00:54:23;;;;;;;7.57;6.97;;;;;;;10.73;100.00;96961.50;5054401;28;20445;-75
2022/05/06 00:56:52;;;;;;;7.70;6.80;;;;;;;10.29;100.00;96907.03;5054363;28;20544;-75
2022/05/06 00:59:19;;;;;;;7.80;7.10;;;;;;;10.67;100.00;96960.06;5036384;28;20440;-75
2022/05/06 01:01:46;;;;;;;7.33;6.63;;;;;;;10.47;100.00;96947.47;5053899;28;20459;-75
2022/05/06 01:04:17;;;;;;;8.33;7.50;;;;;;;10.54;100.00;96964.41;5019564;28;20515;-75
2022/05/06 01:06:47;;;;;;;7.63;6.97;;;;;;;10.29;100.00;96933.47;5036035;28;20436;-75
2022/05/06 01:09:18;;;;;;;7.77;6.87;;;;;;;10.41;100.00;96946.81;5035106;28;20479;-75
2022/05/06 01:11:49;;;;;;;6.53;5.93;;;;;;;10.50;100.00;96962.72;5035584;28;20975;-75
2022/05/06 01:14:33;;;;;;;9.73;6.63;;;;;;;10.42;100.00;96947.63;5035458;28;20436;-75
2022/05/06 01:17:29;;;;;;;8.03;5.97;;;;;;;10.44;100.00;96943.59;5032391;28;20476;-75
2022/05/06 01:19:56;;;;;;;5.50;5.00;;;;;;;10.18;100.00;96905.75;5035091;28;20815;-75
2022/05/06 01:22:23;;;;;;;13.90;9.37;;;;;;;10.42;100.00;96955.56;5035362;28;20444;-75
2022/05/06 01:24:50;;;;;;;10.17;5.80;;;;;;;9.97;100.00;96893.09;5035361;28;20498;-75
2022/05/06 01:27:26;;;;;;;6.63;5.60;;;;;;;10.20;100.00;96946.63;5018869;28;20443;-75
2022/05/06 01:29:55;;;;;;;7.17;6.17;;;;;;;10.29;100.00;96951.97;5052994;28;20444;-75
2022/05/06 01:32:23;;;;;;;11.70;5.37;;;;;;;10.09;100.00;96908.38;5053234;28;20448;-75
2022/05/06 01:34:51;;;;;;;7.30;5.50;;;;;;;10.38;100.00;96950.09;5035179;28;20436;-75
2022/05/06 01:37:22;;;;;;;6.80;5.13;;;;;;;10.04;100.00;96906.66;5035098;28;20591;-75
2022/05/06 01:39:52;;;;;;;7.73;4.97;;;;;;;10.42;100.00;96966.91;5034918;28;20527;-75
2022/05/06 01:42:22;;;;;;;7.80;4.83;;;;;;;10.26;100.00;96969.19;5035072;28;20802;-76
2022/05/06 01:45:01;;;;;;;8.73;5.30;;;;;;;9.68;100.00;96869.88;5035106;28;20452;-75
2022/05/06 01:47:30;;;;;;;8.87;5.20;;;;;;;9.92;100.00;96911.75;5035617;28;20420;-76
2022/05/06 01:50:03;;;;;;;5.23;4.73;;;;;;;9.11;100.00;96803.09;5050782;28;20895;-75
2022/05/06 01:52:35;;;;;;;5.10;4.60;;;;;;;9.94;100.00;96920.13;5034848;28;20530;-75
2022/05/06 01:55:02;;;;;;;6.03;5.23;;;;;;;9.96;100.00;96925.88;5034758;28;20444;-75
2022/05/06 01:57:36;;;;;;;5.43;5.00;;;;;;;9.77;100.00;96914.81;5034874;28;20550;-75
2022/05/06 02:00:05;;;;;;;8.73;5.57;;;;;;;10.11;100.00;96961.66;5034547;28;21075;-75
2022/05/06 02:02:41;;;;;;;7.23;5.80;;;;;;;10.14;100.00;96965.56;5052619;28;20482;-75
2022/05/06 02:05:19;;;;;;;5.60;5.10;;;;;;;10.08;100.00;96963.06;5018547;28;20455;-75
2022/05/06 02:07:52;;;;;;;6.07;5.57;;;;;;;9.98;100.00;96962.56;5034605;28;20510;-75
2022/05/06 02:10:22;;;;;;;5.90;5.30;;;;;;;10.01;100.00;96944.22;5034334;28;20467;-75
2022/05/06 02:12:55;;;;;;;5.80;4.80;;;;;;;10.10;100.00;96948.78;5034184;28;20460;-75
2022/05/06 02:15:42;;;;;;;5.63;4.70;;;;;;;10.07;100.00;96924.53;5037118;28;20445;-75
2022/05/06 02:18:42;;;;;;;6.20;4.77;;;;;;;10.26;100.00;96955.97;5016762;28;20961;-75
2022/05/06 02:21:26;;;;;;;7.80;5.10;;;;;;;9.87;100.00;96897.88;5034245;28;20558;-75
2022/05/06 02:24:16;;;;;;;5.53;5.00;;;;;;;10.34;100.00;96952.59;5023767;28;20940;-75
2022/05/06 02:27:02;;;;;;;8.57;4.80;;;;;;;10.29;100.00;96944.81;5034384;28;20441;-75
2022/05/06 02:29:30;;;;;;;7.00;4.30;;;;;;;10.40;100.00;96963.78;5034211;28;20823;-75
2022/05/06 02:34:47;;;;;;;5.10;4.67;;;;;;;10.04;100.00;96956.84;5034259;28;21021;-75
2022/05/06 02:37:16;;;;;;;5.67;4.90;;;;;;;9.74;100.00;96962.94;5036764;28;20521;-75
2022/05/06 02:39:47;;;;;;;6.03;5.20;;;;;;;9.39;100.00;96896.81;5034123;28;20458;-75
2022/05/06 02:42:18;;;;;;;5.70;4.83;;;;;;;9.84;100.00;96965.31;5050624;28;20459;-76
2022/05/06 02:44:48;;;;;;;4.50;3.70;;;;;;;9.63;100.00;96966.94;5018211;28;20460;-76
2022/05/06 02:47:15;;;;;;;4.40;4.00;;;;;;;9.59;100.00;96923.75;5007364;28;21009;-76
2022/05/06 02:49:43;;;;;;;4.40;4.10;;;;;;;9.74;100.00;96953.16;5027570;28;20506;-76
2022/05/06 02:52:12;;;;;;;5.77;3.83;;;;;;;9.84;100.00;96952.09;5033807;28;20494;-76
2022/05/06 02:54:40;;;;;;;4.97;4.07;;;;;;;9.77;100.00;96963.13;5033627;28;20800;-76
2022/05/06 02:57:09;;;;;;;4.53;4.13;;;;;;;9.55;100.00;96912.25;5033408;28;20498;-76
2022/05/06 02:59:39;;;;;;;4.53;3.80;;;;;;;9.83;100.00;96952.41;5033684;28;20483;-76
2022/05/06 03:02:06;;;;;;;5.17;4.10;;;;;;;9.46;100.00;96904.28;5033709;28;20486;-76
2022/05/06 03:04:33;;;;;;;5.97;3.73;;;;;;;9.56;100.00;96921.72;5033793;28;20444;-76
2022/05/06 03:07:04;;;;;;;4.73;3.00;;;;;;;9.83;100.00;96955.06;5033566;28;20952;-76
2022/05/06 03:09:40;;;;;;;4.63;4.00;;;;;;;9.80;100.00;96953.03;5018384;28;20448;-76
2022/05/06 03:12:08;;;;;;;4.30;3.70;;;;;;;9.69;100.00;96916.31;5033764;28;20513;-76
2022/05/06 03:14:42;;;;;;;3.70;3.37;;;;;;;9.38;100.00;96876.78;5033479;28;20522;-76
2022/05/06 03:17:38;;;;;;;5.10;4.40;;;;;;;9.60;100.00;96918.16;5039873;28;20476;-76
2022/05/06 03:20:08;;;;;;;6.10;4.00;;;;;;;9.54;100.00;96905.41;5051254;28;20468;-76
2022/05/06 03:22:41;;;;;;;6.20;3.70;;;;;;;9.83;100.00;96955.84;5033352;28;20433;-76
2022/05/06 03:25:11;;;;;;;6.07;3.70;;;;;;;9.54;100.00;96910.69;5033634;28;20424;-76
2022/05/06 03:30:28;;;;;;;4.90;4.43;;;;;;;9.59;100.00;96913.19;5050998;28;20535;-76
2022/05/06 03:33:12;;;;;;;5.20;4.67;;;;;;;9.60;100.00;96914.72;5021676;28;20437;-76
2022/05/06 03:35:39;;;;;;;4.63;3.67;;;;;;;9.91;100.00;96955.09;5039799;28;20436;-76
2022/05/06 03:38:07;;;;;;;4.40;3.60;;;;;;;9.91;100.00;96960.38;5039677;28;21067;-76
2022/05/06 03:40:38;;;;;;;3.53;3.23;;;;;;;9.62;100.00;96916.00;5039787;28;20459;-76
2022/05/06 03:43:06;;;;;;;5.73;3.67;;;;;;;9.76;100.00;96956.28;5039824;28;20441;-76
2022/05/06 03:45:36;;;;;;;4.40;4.00;;;;;;;9.35;100.00;96874.75;5039630;28;20452;-76
2022/05/06 03:48:04;;;;;;;7.63;4.10;;;;;;;9.89;100.00;96954.63;5039728;28;20835;-76
2022/05/06 03:53:20;;;;;;;2.90;2.60;;;;;;;9.88;100.00;96952.28;5056405;28;20490;-77
2022/05/06 03:55:51;;;;;;;4.00;3.63;;;;;;;9.54;100.00;96915.97;5040480;28;20436;-77
2022/05/06 03:58:19;;;;;;;5.93;3.30;;;;;;;9.29;100.00;96901.56;5040783;28;20472;-77
2022/05/06 04:00:46;;;;;;;6.73;3.83;;;;;;;9.12;100.00;96874.00;5039846;28;20518;-77
2022/05/06 04:03:14;;;;;;;5.50;3.83;;;;;;;9.62;100.00;96937.13;5005620;28;20449;-76
2022/05/06 04:05:41;;;;;;;4.70;3.33;;;;;;;9.80;100.00;96959.09;5049202;28;20450;-76
2022/05/06 04:08:09;;;;;;;7.77;4.33;;;;;;;9.23;100.00;96898.28;5039790;28;20436;-76
2022/05/06 04:10:37;;;;;;;5.43;3.50;;;;;;;9.45;100.00;96921.97;5039943;28;20577;-76
2022/05/06 04:13:03;;;;;;;5.43;3.70;;;;;;;9.14;100.00;96882.41;5039664;28;20459;-77
2022/05/06 04:15:32;;;;;;;5.30;3.30;;;;;;;9.50;100.00;96930.88;5039615;28;20440;-77
2022/05/06 04:18:01;;;;;;;5.90;4.10;;;;;;;9.76;100.00;96984.56;5039803;28;21030;-76
2022/05/06 04:23:30;;;;;;;3.70;3.40;;;;;;;9.73;100.00;96956.09;5029049;28;20448;-77
2022/05/06 04:26:04;;;;;;;6.13;3.80;;;;;;;9.56;100.00;96979.78;5039554;28;21008;-77
2022/05/06 04:28:35;;;;;;;4.30;3.40;;;;;;;9.11;100.00;96930.50;5039542;28;20902;-76
2022/05/06 04:31:04;;;;;;;3.90;3.60;;;;;;;9.01;100.00;96940.50;5039186;28;20903;-76
2022/05/06 04:33:37;;;;;;;4.50;4.10;;;;;;;9.25;100.00;96935.69;5039752;28;20565;-76
2022/05/06 04:36:06;;;;;;;3.87;3.30;;;;;;;9.58;100.00;96974.97;5040185;28;20775;-76
2022/05/06 04:38:33;;;;;;;7.67;4.07;;;;;;;9.63;100.00;96980.16;5039618;28;20460;-76
2022/05/06 04:41:03;;;;;;;4.30;3.93;;;;;;;9.30;100.00;96918.94;5023468;28;20467;-76
2022/05/06 04:43:33;;;;;;;4.03;3.73;;;;;;;9.35;100.00;96924.91;5039395;28;20444;-76
2022/05/06 04:46:00;;;;;;;5.00;4.07;;;;;;;9.74;100.00;97000.69;5035178;28;20945;-76
2022/05/06 04:48:29;;;;;;;5.10;3.80;;;;;;;9.85;100.00;97003.06;5036384;28;20486;-76
2022/05/06 04:50:59;;;;;;;21.60;19.63;;;;;;;9.74;100.00;96947.88;5036503;28;21012;-76
2022/05/06 04:53:25;;;;;;;11.10;8.70;;;;;;;10.02;100.00;97001.28;5036837;28;20436;-76
2022/05/06 04:55:55;;;;;;;5.63;5.10;;;;;;;10.14;100.00;97008.63;5046842;28;20452;-76
2022/05/06 04:58:41;;;;;;;7.90;4.93;;;;;;;10.00;100.00;97000.00;5036723;28;20467;-76
2022/05/06 05:01:15;;;;;;;4.37;4.07;;;;;;;9.89;100.00;97018.03;5041911;28;20456;-76
2022/05/06 05:03:44;;;;;;;4.40;4.10;;;;;;;9.46;100.00;96946.50;5020128;28;20453;-76
2022/05/06 05:06:10;;;;;;;5.27;4.30;;;;;;;9.71;100.00;96992.59;5025053;28;20440;-76
2022/05/06 05:08:38;;;;;;;8.97;5.00;;;;;;;9.49;100.00;96951.19;5036157;28;20485;-76
2022/05/06 05:11:05;;;;;;;6.00;5.40;;;;;;;9.45;100.00;96943.09;5035744;28;20514;-76
2022/05/06 05:13:39;;;;;;;7.90;7.20;;;;;;;9.94;100.00;97027.66;5035826;28;20444;-76
2022/05/06 05:16:14;;;;;;;10.47;8.23;;;;;;;9.78;100.00;96993.72;5035675;28;20546;-77
2022/05/06 05:18:41;;;;;;;13.60;10.50;;;;;;;10.20;100.00;97033.06;5036068;28;20962;-77
2022/05/06 05:21:08;;;;;;;15.33;10.73;;;;;;;10.32;100.00;97041.22;5035297;28;20894;-76
2022/05/06 05:23:35;;;;;;;11.73;9.10;;;;;;;10.52;100.00;97034.56;5035491;28;20505;-76
2022/05/06 05:26:02;;;;;;;10.17;9.20;;;;;;;10.36;100.00;97021.78;5035288;28;20448;-76
2022/05/06 05:28:29;;;;;;;8.23;6.30;;;;;;;10.54;100.00;97038.44;5043828;28;20929;-76
2022/05/06 05:30:56;;;;;;;6.20;5.20;;;;;;;10.09;100.00;96984.97;5034926;28;20811;-76
2022/05/06 05:33:24;;;;;;;6.80;5.00;;;;;;;10.37;100.00;96996.13;5035400;28;20535;-76
2022/05/06 05:35:55;;;;;;;6.10;5.57;;;;;;;10.64;100.00;97043.47;5035285;28;20448;-76
2022/05/06 05:38:22;;;;;;;5.20;4.70;;;;;;;10.38;100.00;97012.75;5035102;28;21068;-76
2022/05/06 05:40:50;;;;;;;4.87;4.47;;;;;;;10.50;100.00;97024.31;5018906;28;20472;-76
2022/05/06 05:48:54;;;;;;;4.00;3.50;;;;;;;10.95;100.00;97037.25;5038427;28;20444;-76
2022/05/06 05:51:22;;;;;;;4.60;3.50;;;;;;;10.75;100.00;97003.50;5035124;28;20476;-76
2022/05/06 05:53:53;;;;;;;4.13;3.80;;;;;;;10.76;100.00;96994.47;5035709;28;20437;-76
2022/05/06 05:56:22;;;;;;;3.97;3.67;;;;;;;11.08;100.00;97043.50;5034784;28;20453;-76
2022/05/06 05:58:50;;;;;;;6.63;3.67;;;;;;;10.71;100.00;96995.41;5035237;28;20461;-76
2022/05/06 06:01:19;;;;;;;8.33;4.20;;;;;;;11.08;100.00;97041.63;5052984;28;20460;-76
2022/05/06 06:03:47;;;;;;;4.00;3.70;;;;;;;11.19;100.00;97047.41;5035205;28;20507;-76
2022/05/06 06:06:14;;;;;;;4.97;4.13;;;;;;;10.96;100.00;97020.34;5035254;28;20439;-76
2022/05/06 06:08:44;;;;;;;6.73;5.00;;;;;;;10.61;100.00;96974.56;5035229;28;20443;-77
2022/05/06 06:11:11;;;;;;;9.43;4.50;;;;;;;10.99;100.00;97018.91;5035102;28;20876;-76
2022/05/06 06:13:41;;;;;;;6.80;4.30;;;;;;;10.79;100.00;96996.50;5035565;28;20437;-76
2022/05/06 06:16:12;;;;;;;3.93;3.53;;;;;;;10.74;100.00;96980.78;5034410;28;20451;-76
2022/05/06 06:18:38;;;;;;;4.57;3.47;;;;;;;11.19;100.00;97034.16;5034191;28;20465;-76
2022/05/06 06:21:06;;;;;;;7.53;3.37;;;;;;;11.12;100.00;97023.28;5034156;28;20542;-76
2022/05/06 06:23:33;;;;;;;4.00;3.60;;;;;;;11.22;100.00;97023.75;5034252;28;20433;-75
2022/05/06 06:26:01;;;;;;;4.97;4.20;;;;;;;11.32;100.00;97043.81;5034158;28;20531;-75
2022/05/06 06:28:29;;;;;;;3.80;3.50;;;;;;;11.52;100.00;97053.78;5034543;28;21010;-75
2022/05/06 06:30:55;;;;;;;3.57;3.27;;;;;;;11.63;100.00;97046.28;5034257;28;20468;-75
2022/05/06 06:33:22;;;;;;;4.77;3.17;;;;;;;11.73;100.00;97050.44;5018486;28;20446;-75
2022/05/06 06:35:50;;;;;;;6.43;3.87;;;;;;;11.85;100.00;97066.50;5034416;28;20498;-75
2022/05/06 06:38:17;;;;;;;3.67;3.27;;;;;;;11.78;100.00;97053.72;5034516;28;21005;-76
2022/05/06 06:40:45;;;;;;;3.23;2.93;;;;;;;11.93;100.00;97049.03;5038064;28;20482;-76
2022/05/06 06:43:12;;;;;;;3.40;3.10;;;;;;;12.13;100.00;97075.63;5043401;28;20443;-76
2022/05/06 06:45:44;;;;;;;3.00;2.70;;;;;;;12.13;99.61;97064.25;5049261;28;20430;-76
2022/05/06 06:48:32;;;;;;;3.00;2.37;;;;;;;11.81;93.37;97025.84;5034918;28;20442;-76
2022/05/06 06:51:18;;;;;;;3.10;2.70;;;;;;;11.36;94.62;96949.44;5061380;28;20508;-76
2022/05/06 06:53:50;;;;;;;2.43;1.90;;;;;;;12.16;89.62;97076.09;5047685;28;20432;-77
2022/05/06 06:56:16;;;;;;;2.97;2.10;;;;;;;11.91;89.20;97041.41;5058707;28;20425;-76
2022/05/06 06:58:43;;;;;;;2.53;2.33;;;;;;;12.21;88.68;97086.53;5052170;28;20495;-76
2022/05/06 07:01:11;;;;;;;2.70;2.00;;;;;;;12.07;88.92;97052.28;5033831;28;20523;-76
2022/05/06 07:03:38;;;;;;;4.13;2.20;;;;;;;11.89;90.27;97029.56;5051836;28;20429;-76
2022/05/06 07:11:53;;;;;;;4.40;2.37;;;;;;;12.34;85.29;97085.53;5033948;28;20491;-77
2022/05/06 07:14:21;;;;;;;3.93;2.23;;;;;;;12.46;84.89;97071.59;5034368;28;20448;-76
2022/05/06 07:16:49;;;;;;;4.70;2.30;;;;;;;12.18;82.25;97037.56;5051905;28;20529;-76
2022/05/06 07:19:16;;;;;;;5.47;3.63;;;;;;;12.57;81.84;97084.19;5051918;28;20515;-76
2022/05/06 07:21:44;;;;;;;3.07;1.67;;;;;;;12.55;81.12;97086.38;5034034;28;20496;-76
2022/05/06 07:24:10;;;;;;;2.77;2.00;;;;;;;12.44;79.46;97071.94;5034050;28;20991;-76
2022/05/06 07:26:37;;;;;;;2.97;1.83;;;;;;;12.54;78.88;97095.41;5052033;28;20428;-76
2022/05/06 07:29:04;;;;;;;4.40;4.00;;;;;;;12.56;78.05;97093.25;5034230;28;21109;-76
2022/05/06 07:31:31;;;;;;;3.47;2.03;;;;;;;12.58;78.98;97093.69;5052281;28;20956;-76
2022/05/06 07:33:58;;;;;;;1.97;1.87;;;;;;;12.64;78.10;97099.59;5052281;28;20833;-77
2022/05/06 07:36:24;;;;;;;4.10;2.23;;;;;;;12.53;80.82;97061.25;5052012;28;20946;-76
2022/05/06 07:38:51;;;;;;;3.10;2.70;;;;;;;12.94;77.96;97093.16;5051956;28;20457;-76
2022/05/06 07:41:18;;;;;;;3.80;1.90;;;;;;;12.65;76.27;97038.25;5051870;28;20508;-76
2022/05/06 07:43:45;;;;;;;4.70;2.23;;;;;;;12.39;75.98;97001.25;5017789;28;20462;-76
2022/05/06 07:46:12;;;;;;;3.17;2.47;;;;;;;12.99;76.63;97086.91;5034405;28;20443;-76
2022/05/06 07:48:40;;;;;;;2.07;1.87;;;;;;;12.95;74.47;97062.91;5052172;28;20429;-76
2022/05/06 07:51:07;;;;;;;3.10;2.90;;;;;;;12.57;73.98;97009.13;5051896;28;20464;-76
2022/05/06 07:53:34;;;;;;;2.77;1.97;;;;;;;13.31;74.16;97096.84;5017936;28;20433;-76
2022/05/06 07:56:00;;;;;;;5.90;2.07;;;;;;;13.08;74.58;97057.63;5034299;28;20888;-76
2022/05/06 07:58:27;;;;;;;2.50;2.00;;;;;;;12.93;74.40;97033.22;5051450;28;20509;-76
2022/05/06 08:00:54;;;;;;;4.40;1.83;;;;;;;13.23;72.50;97081.00;5034207;28;20479;-76
2022/05/06 08:06:07;;;;;;;2.00;1.87;;;;;;;13.40;72.84;97054.28;5038063;28;20445;-76
2022/05/06 08:08:34;;;;;;;2.30;2.10;;;;;;;13.51;72.72;97097.19;5052446;28;20426;-76
2022/05/06 08:11:01;;;;;;;2.63;2.23;;;;;;;13.51;73.12;97099.84;5068420;28;20551;-76
2022/05/06 08:13:28;;;;;;;3.30;3.00;;;;;;;13.49;71.42;97104.72;5051275;28;20475;-76
2022/05/06 08:15:57;;;;;;;2.73;1.80;;;;;;;13.65;72.22;97095.03;5068678;28;20429;-76
2022/05/06 08:18:24;;;;;;;2.27;2.07;;;;;;;13.53;74.40;97066.53;5066468;28;20992;-76
2022/05/06 08:20:51;;;;;;;4.03;1.80;;;;;;;13.58;70.61;97105.38;5054536;28;20483;-76
2022/05/06 08:23:22;;;;;;;2.03;1.80;;;;;;;13.51;69.73;97097.19;5072595;28;20447;-76
2022/05/06 08:25:53;;;;;;;2.50;1.93;;;;;;;13.59;69.59;97097.09;5055273;28;20442;-76
2022/05/06 08:28:22;;;;;;;4.63;2.43;;;;;;;13.30;69.92;97049.38;5063496;28;20433;-76
2022/05/06 08:30:50;;;;;;;3.77;2.17;;;;;;;13.49;68.49;97096.75;5053755;28;20527;-76
2022/05/06 08:33:17;;;;;;;3.37;2.10;;;;;;;13.77;69.20;97110.25;5053422;28;20421;-76
2022/05/06 08:35:45;;;;;;;2.17;1.97;;;;;;;13.77;69.30;97112.91;5073072;28;20433;-76
2022/05/06 08:38:12;;;;;;;2.80;1.97;;;;;;;13.28;68.25;97030.34;5053200;28;20496;-76
2022/05/06 08:40:39;;;;;;;2.20;2.00;;;;;;;14.06;69.74;97118.06;5067235;28;20466;-76
2022/05/06 08:43:05;;;;;;;2.93;1.90;;;;;;;14.13;70.11;97128.94;5059914;28;20441;-75
2022/05/06 08:51:04;;;;;;;2.40;1.90;;;;;;;14.22;68.99;97106.81;5053950;28;20465;-76
2022/05/06 08:53:33;;;;;;;2.10;1.93;;;;;;;14.32;71.42;97096.53;5028696;28;20842;-76
2022/05/06 08:56:04;;;;;;;2.67;2.00;;;;;;;14.40;68.50;97119.56;5043212;28;20434;-76
2022/05/06 08:58:34;;;;;;;2.10;1.90;;;;;;;14.35;67.99;97117.13;5038237;28;20484;-76
2022/05/06 09:01:04;;;;;;;3.50;2.40;;;;;;;14.14;67.92;97121.75;5056387;28;20458;-76
2022/05/06 09:03:31;;;;;;;3.10;2.00;;;;;;;14.05;68.20;97126.38;5051529;28;20437;-76
2022/05/06 09:05:58;;;;;;;3.17;1.80;;;;;;;13.67;68.26;97078.75;5066174;28;20436;-76
2022/05/06 09:08:38;;;;;;;5.20;2.10;;;;;;;13.97;68.71;97124.59;5042128;28;20433;-77
2022/05/06 09:11:08;;;;;;;3.93;1.70;;;;;;;14.15;67.98;97117.97;5051480;28;20518;-77
2022/05/06 09:13:58;;;;;;;7.53;2.90;;;;;;;14.19;66.72;97119.66;5045263;28;20506;-77
2022/05/06 09:16:44;;;;;;;4.27;2.33;;;;;;;14.15;67.37;97118.75;5041618;28;20444;-75
2022/05/06 09:19:13;;;;;;;6.73;2.10;;;;;;;14.30;68.07;97117.34;5039789;28;20542;-76
2022/05/06 09:21:41;;;;;;;5.87;2.27;;;;;;;14.49;67.82;97120.28;5037752;28;20984;-75
2022/05/06 09:24:18;;;;;;;2.23;2.03;;;;;;;14.11;69.12;97079.84;5041682;28;20455;-75
2022/05/06 09:26:55;;;;;;;3.20;2.20;;;;;;;14.24;67.44;97097.38;5036267;28;20803;-75
2022/05/06 09:29:30;;;;;;;3.43;2.70;;;;;;;14.08;67.41;97070.66;5054398;28;20540;-75
2022/05/06 09:32:13;;;;;;;7.83;2.53;;;;;;;14.16;67.65;97084.97;5035445;28;20441;-75
2022/05/06 09:34:44;;;;;;;6.17;2.30;;;;;;;14.70;68.01;97124.75;5036160;28;20433;-75
2022/05/06 09:37:11;;;;;;;3.53;2.23;;;;;;;14.11;69.31;97050.59;5036437;28;21243;-75
2022/05/06 09:39:38;;;;;;;3.57;2.43;;;;;;;14.55;70.56;97080.91;5036127;28;20464;-75
2022/05/06 09:42:06;;;;;;;3.80;2.77;;;;;;;14.83;67.50;97136.16;5053082;28;20433;-75
2022/05/06 09:44:33;;;;;;;3.63;3.03;;;;;;;14.76;68.61;97108.19;5053867;28;20981;-76
2022/05/06 09:47:15;;;;;;;2.43;2.20;;;;;;;14.81;66.90;97138.38;5050210;28;20486;-76
2022/05/06 09:49:42;;;;;;;5.50;3.17;;;;;;;14.47;67.40;97066.63;5054058;28;20422;-75
2022/05/06 09:52:14;;;;;;;5.83;3.30;;;;;;;14.96;67.77;97140.38;5023283;28;20453;-75
2022/05/06 09:54:43;;;;;;;3.43;2.50;;;;;;;15.04;70.54;97140.25;5053815;28;20444;-76
2022/05/06 09:57:11;;;;;;;4.93;2.43;;;;;;;14.88;69.31;97110.09;5019653;28;20971;-76
2022/05/06 09:59:39;;;;;;;3.67;2.13;;;;;;;15.22;68.80;97135.44;5036328;28;20840;-76
2022/05/06 10:02:08;;;;;;;4.60;2.60;;;;;;;14.82;67.09;97082.09;5035825;28;20476;-75
2022/05/06 10:04:36;;;;;;;4.10;2.50;;;;;;;15.02;68.53;97107.84;5040136;28;20476;-75
2022/05/06 10:07:15;;;;;;;5.03;3.00;;;;;;;15.26;68.16;97122.25;5036190;28;20537;-75
2022/05/06 10:10:05;;;;;;;2.83;2.63;;;;;;;15.35;66.98;97114.88;5036150;28;20441;-75
2022/05/06 10:12:45;;;;;;;11.20;3.20;;;;;;;15.29;68.63;97127.66;5036452;28;20428;-76
2022/05/06 10:15:13;;;;;;;5.43;2.50;;;;;;;15.47;67.90;97124.72;5035758;28;20437;-75
2022/05/06 10:17:53;;;;;;;4.00;3.03;;;;;;;15.54;66.84;97122.28;5036008;28;20429;-75
2022/05/06 10:20:35;;;;;;;4.27;3.33;;;;;;;15.39;67.21;97118.44;5018986;28;20514;-76
2022/05/06 10:23:04;;;;;;;3.20;2.90;;;;;;;15.50;68.59;97127.50;5040900;28;20448;-75
2022/05/06 10:25:40;;;;;;;5.07;3.90;;;;;;;15.78;66.77;97135.53;5035945;28;20446;-76
2022/05/06 10:34:14;;;;;;;4.40;3.73;;;;;;;15.11;66.78;97117.59;5035527;28;20442;-75
2022/05/06 10:36:53;;;;;;;3.60;3.30;;;;;;;15.15;67.38;97124.59;5035816;28;20459;-75
2022/05/06 10:39:22;;;;;;;5.30;3.43;;;;;;;15.37;68.03;97129.44;5035441;28;20468;-75
2022/05/06 10:42:11;;;;;;;3.73;3.20;;;;;;;15.42;67.65;97127.63;5018654;28;20461;-75
2022/05/06 10:44:44;;;;;;;5.00;4.47;;;;;;;15.22;67.69;97111.47;5035494;28;20471;-76
2022/05/06 10:47:13;;;;;;;4.67;3.80;;;;;;;15.41;67.53;97118.09;5053797;28;20524;-76
2022/05/06 10:49:40;;;;;;;4.87;4.40;;;;;;;15.58;68.98;97121.25;5036196;28;20449;-75
2022/05/06 10:52:17;;;;;;;4.97;4.20;;;;;;;15.90;67.42;97118.72;5036345;28;21013;-76
2022/05/06 10:54:47;;;;;;;40.07;30.07;;;;;;;15.90;66.44;97113.38;5053578;28;20421;-76
2022/05/06 10:57:16;;;;;;;11.90;10.70;;;;;;;16.30;67.88;97113.28;5053531;28;20929;-76
2022/05/06 10:59:49;;;;;;;9.47;4.83;;;;;;;16.18;66.71;97122.13;5052877;28;20960;-76
2022/05/06 11:02:17;;;;;;;5.77;5.27;;;;;;;15.95;68.81;97107.78;5053511;28;20434;-76
2022/05/06 11:04:51;;;;;;;6.47;5.30;;;;;;;15.56;68.03;97034.72;5035579;28;20486;-76
2022/05/06 11:07:18;;;;;;;10.37;5.23;;;;;;;16.12;69.55;97104.03;5053594;28;20430;-76
2022/05/06 11:09:46;;;;;;;5.23;4.73;;;;;;;16.31;68.26;97108.72;5053516;28;20424;-76
2022/05/06 11:12:29;;;;;;;6.40;4.83;;;;;;;16.55;67.58;97106.63;5035717;28;20467;-76
2022/05/06 11:14:57;;;;;;;6.13;5.57;;;;;;;16.36;67.89;97111.88;5023688;28;20499;-76
2022/05/06 11:17:25;;;;;;;8.17;5.53;;;;;;;16.44;67.80;97112.84;5052910;28;20788;-76
2022/05/06 11:19:52;;;;;;;9.13;5.67;;;;;;;16.33;67.14;97107.25;5037426;28;20469;-76
2022/05/06 11:22:20;;;;;;;7.30;4.60;;;;;;;16.11;68.08;97078.47;5053118;28;20439;-76
2022/05/06 11:24:47;;;;;;;5.93;5.53;;;;;;;16.29;69.07;97100.25;5053295;28;20447;-76
2022/05/06 11:27:15;;;;;;;6.27;5.20;;;;;;;16.32;68.09;97097.69;5053887;28;20491;-76
2022/05/06 11:29:57;;;;;;;7.10;5.70;;;;;;;15.81;67.99;97036.19;5039691;28;20437;-76
2022/05/06 11:32:28;;;;;;;6.20;4.67;;;;;;;16.43;69.44;97096.06;5057358;28;20432;-77
2022/05/06 11:35:06;;;;;;;4.70;4.30;;;;;;;16.18;69.02;97020.72;5056323;28;20425;-76
2022/05/06 11:37:34;;;;;;;5.20;4.70;;;;;;;16.39;68.14;97075.72;5037983;28;20432;-76
2022/05/06 11:40:32;;;;;;;5.80;5.30;;;;;;;16.40;67.22;97088.72;5038385;28;20480;-76
2022/05/06 11:43:00;;;;;;;10.93;4.30;;;;;;;15.86;66.12;96984.47;5054899;28;20492;-76
2022/05/06 11:48:15;;;;;;;5.60;5.07;;;;;;;16.31;66.09;97095.38;5047648;28;20806;-76
2022/05/06 11:50:43;;;;;;;6.43;5.23;;;;;;;15.99;66.13;97052.63;5051483;28;20480;-76
2022/05/06 11:53:13;;;;;;;8.07;5.13;;;;;;;16.30;67.20;97062.56;5051761;28;20453;-76
2022/05/06 11:55:43;;;;;;;6.10;5.27;;;;;;;16.39;67.24;97057.03;5038422;28;20491;-76
2022/05/06 11:58:13;;;;;;;5.20;4.70;;;;;;;16.25;67.24;97068.91;5056471;28;20428;-76
2022/05/06 12:00:41;;;;;;;7.80;6.53;;;;;;;15.53;68.30;96998.09;5038233;28;21073;-76
2022/05/06 12:03:09;;;;;;;6.60;4.60;;;;;;;16.15;67.41;97088.09;5055956;28;20949;-76
2022/05/06 12:05:38;;;;;;;8.30;5.07;;;;;;;16.01;67.49;97060.28;5056351;28;20429;-76
2022/05/06 12:08:05;;;;;;;5.03;4.30;;;;;;;16.09;69.08;97080.72;5055854;28;20471;-76
2022/05/06 12:10:34;;;;;;;8.13;6.13;;;;;;;15.95;68.45;97025.88;5038811;28;20460;-76
2022/05/06 12:13:07;;;;;;;8.90;5.00;;;;;;;16.17;69.29;97051.19;5037939;28;20448;-76
2022/05/06 12:15:40;;;;;;;8.60;6.60;;;;;;;16.16;67.92;97028.31;5038122;28;20461;-76
2022/05/06 12:18:18;;;;;;;5.93;5.43;;;;;;;16.30;68.54;97045.78;5038189;28;20440;-76
2022/05/06 12:20:46;;;;;;;7.17;6.53;;;;;;;16.30;68.08;97051.88;5055925;28;20500;-76
2022/05/06 12:23:14;;;;;;;6.17;5.57;;;;;;;16.78;68.29;97073.97;5038120;28;20450;-76